Morongo Valley, California
Current Conditions -  °F | °C
As of 12:53 PM on Saturday 25 Oct 2014 (Local Time) from KPSP Reporting Station
Clear Clear  
Wind Chill: 92°   Ceiling: Unl
Heat Index: 92°   Visibility: 10mi
Dew Point: 47°   Wind: 8mph
Humidity: 21%   Direction: 90°E
Pressure: 29.95"   Gusts: NA
Location:  34.06°N, 116.59°W
Report Text: KPSP 251953Z 09007KT 10SM CLR 33/08 A2995 RMK AO2 SLP139 T03330083
Loading
Personal Weather Stations






























Interactive Weather Map
Tropical Storm Tracking
New forecast layout! Learn more

10-Day Weather Forecast

Advertisements
Track Severe Weather on mobile